createdAt,value
2023-03-07T00:02:01.410Z,99090.72
2023-03-07T00:04:30.668Z,99088.59
2023-03-07T00:06:58.772Z,99077.34
2023-03-07T00:09:26.429Z,99072.75
2023-03-07T00:11:54.706Z,99068.63
2023-03-07T00:14:22.368Z,99060.41
2023-03-07T00:16:51.340Z,99053.66
2023-03-07T00:19:19.440Z,99052.91
2023-03-07T00:21:48.543Z,99047.06
2023-03-07T00:24:16.277Z,99052.41
2023-03-07T00:26:43.912Z,99058.25
2023-03-07T00:29:11.942Z,99036.41
2023-03-07T00:31:39.721Z,99049.47
2023-03-07T00:34:07.425Z,99035.31
2023-03-07T00:36:35.290Z,99031.03
2023-03-07T00:39:04.445Z,99022.06
2023-03-07T00:41:32.355Z,99024.28
2023-03-07T00:43:59.908Z,99016.47
2023-03-07T00:46:28.197Z,99015.59
2023-03-07T00:48:56.481Z,99005.28
2023-03-07T00:51:25.006Z,98999.47
2023-03-07T00:53:52.929Z,98998.28
2023-03-07T00:56:23.893Z,98988.00
2023-03-07T00:58:52.546Z,98995.34
2023-03-07T01:01:22.864Z,98984.97
2023-03-07T01:03:53.439Z,98975.88
2023-03-07T01:06:23.971Z,98976.38
2023-03-07T01:08:51.877Z,98963.66
2023-03-07T01:11:19.703Z,98974.91
2023-03-07T01:13:48.682Z,98960.72
2023-03-07T01:16:18.559Z,98951.16
2023-03-07T01:18:50.016Z,98944.09
2023-03-07T01:21:20.384Z,98946.75
2023-03-07T01:23:48.347Z,98941.75
2023-03-07T01:26:18.868Z,98925.97
2023-03-07T01:28:47.046Z,98924.31
2023-03-07T01:31:16.119Z,98920.97
2023-03-07T01:33:43.813Z,98926.34
2023-03-07T01:36:20.158Z,98912.25
2023-03-07T01:38:47.961Z,98909.78
2023-03-07T01:41:17.024Z,98901.91
2023-03-07T01:43:44.913Z,98898.13
2023-03-07T01:46:35.505Z,98895.41
2023-03-07T01:49:07.353Z,98885.63
2023-03-07T01:51:37.313Z,98885.88
2023-03-07T01:54:06.907Z,98880.53
2023-03-07T01:56:37.405Z,98881.72
2023-03-07T01:59:05.622Z,98876.94
2023-03-07T02:01:35.679Z,98869.69
2023-03-07T02:04:10.490Z,98876.91
2023-03-07T02:06:40.062Z,98872.38
2023-03-07T02:09:12.282Z,98862.72
2023-03-07T02:11:42.484Z,98864.88
2023-03-07T02:14:10.124Z,98860.50
2023-03-07T02:16:42.204Z,98860.28
2023-03-07T02:19:29.808Z,98857.97
2023-03-07T02:22:08.808Z,98853.44
2023-03-07T02:24:43.170Z,98853.06
2023-03-07T02:27:12.394Z,98848.94
2023-03-07T02:29:40.542Z,98842.75
2023-03-07T02:32:08.396Z,98844.81
2023-03-07T02:34:36.316Z,98844.22
2023-03-07T02:37:07.993Z,98847.34
2023-03-07T02:39:35.916Z,98841.59
2023-03-07T02:42:07.914Z,98837.91
2023-03-07T02:44:36.925Z,98835.88
2023-03-07T02:47:08.740Z,98840.44
2023-03-07T02:49:36.410Z,98832.97
2023-03-07T02:52:04.562Z,98824.50
2023-03-07T02:54:32.155Z,98819.97
2023-03-07T02:56:59.718Z,98819.13
2023-03-07T02:59:27.424Z,98824.50
2023-03-07T03:01:56.694Z,98821.25
2023-03-07T03:04:24.593Z,98824.19
2023-03-07T03:06:52.251Z,98819.69
2023-03-07T03:09:19.840Z,98819.50
2023-03-07T03:11:47.516Z,98819.13
2023-03-07T03:14:15.197Z,98814.03
2023-03-07T03:16:42.935Z,98813.81
2023-03-07T03:19:11.843Z,98795.88
2023-03-07T03:21:39.537Z,98808.66
2023-03-07T03:24:08.295Z,98806.25
2023-03-07T03:26:36.634Z,98800.94
2023-03-07T03:29:06.089Z,98792.69
2023-03-07T03:31:35.034Z,98800.53
2023-03-07T03:34:02.867Z,98799.72
2023-03-07T03:36:31.884Z,98796.63
2023-03-07T03:39:00.724Z,98797.44
2023-03-07T03:41:28.475Z,98789.84
2023-03-07T03:43:57.196Z,98805.47
2023-03-07T03:46:24.905Z,98801.78
2023-03-07T03:48:53.448Z,98787.81
2023-03-07T03:51:22.409Z,98794.78
2023-03-07T03:53:51.917Z,98794.66
2023-03-07T03:56:21.492Z,98797.94
2023-03-07T03:58:51.438Z,98792.81
2023-03-07T04:01:20.921Z,98791.56
2023-03-07T04:03:49.938Z,98791.16
2023-03-07T04:06:19.995Z,98792.63
2023-03-07T04:08:48.827Z,98799.00
2023-03-07T04:11:18.404Z,98797.41
2023-03-07T04:13:46.445Z,98791.84
2023-03-07T04:16:14.814Z,98796.19
2023-03-07T04:18:42.857Z,98796.19
2023-03-07T04:21:11.589Z,98790.41
2023-03-07T04:23:39.660Z,98788.63
2023-03-07T04:26:09.274Z,98790.44
2023-03-07T04:28:46.530Z,98796.44
2023-03-07T04:31:16.179Z,98793.34
2023-03-07T04:33:44.663Z,98787.19
2023-03-07T04:36:12.813Z,98780.19
2023-03-07T04:38:42.058Z,98773.63
2023-03-07T04:41:13.747Z,98769.94
2023-03-07T04:43:43.188Z,98765.81
2023-03-07T04:46:11.816Z,98765.41
2023-03-07T04:48:40.441Z,98768.09
2023-03-07T04:51:08.529Z,98768.09
2023-03-07T04:53:36.262Z,98759.25
2023-03-07T04:56:06.412Z,98762.56
2023-03-07T04:58:34.792Z,98769.53
2023-03-07T05:01:05.815Z,98767.47
2023-03-07T05:03:34.419Z,98767.25
2023-03-07T05:06:04.203Z,98775.91
2023-03-07T05:08:32.173Z,98782.91
2023-03-07T05:10:59.902Z,98778.75
2023-03-07T05:13:27.521Z,98794.34
2023-03-07T05:15:56.626Z,98796.97
2023-03-07T05:18:26.129Z,98807.44
2023-03-07T05:20:53.966Z,98797.69
2023-03-07T05:23:21.933Z,98800.38
2023-03-07T05:25:49.829Z,98800.66
2023-03-07T05:28:18.152Z,98799.56
2023-03-07T05:30:46.628Z,98800.59
2023-03-07T05:33:14.913Z,98804.91
2023-03-07T05:35:44.218Z,98792.28
2023-03-07T05:38:12.128Z,98790.25
2023-03-07T05:40:40.131Z,98780.78
2023-03-07T05:43:07.782Z,98777.00
2023-03-07T05:45:35.540Z,98776.59
2023-03-07T05:48:03.322Z,98779.50
2023-03-07T05:50:31.963Z,98782.25
2023-03-07T05:53:00.940Z,98782.94
2023-03-07T05:55:28.588Z,98775.38
2023-03-07T05:57:56.300Z,98770.19
2023-03-07T06:00:24.280Z,98773.22
2023-03-07T06:02:52.361Z,98761.97
2023-03-07T06:05:20.124Z,98761.16
2023-03-07T06:07:47.817Z,98751.50
2023-03-07T06:10:17.048Z,98757.50
2023-03-07T06:12:44.814Z,98758.13
2023-03-07T06:15:12.380Z,98750.28
2023-03-07T06:17:40.802Z,98752.78
2023-03-07T06:20:09.901Z,98757.06
2023-03-07T06:22:38.172Z,98754.19
2023-03-07T06:25:06.934Z,98743.13
2023-03-07T06:27:40.460Z,98749.53
2023-03-07T06:30:10.090Z,98748.75
2023-03-07T06:32:37.943Z,98757.56
2023-03-07T06:35:06.421Z,98753.69
2023-03-07T06:37:34.122Z,98758.69
2023-03-07T06:40:05.980Z,98748.81
2023-03-07T06:42:33.707Z,98761.38
2023-03-07T06:45:02.932Z,98758.25
2023-03-07T06:47:31.001Z,98755.56
2023-03-07T06:49:58.631Z,98761.97
2023-03-07T06:52:26.283Z,98759.69
2023-03-07T06:54:54.047Z,98761.53
2023-03-07T06:57:21.652Z,98764.44
2023-03-07T06:59:49.411Z,98764.03
2023-03-07T07:02:21.712Z,98765.69
2023-03-07T07:04:49.415Z,98769.41
2023-03-07T07:07:17.115Z,98770.84
2023-03-07T07:09:44.913Z,98772.25
2023-03-07T07:12:12.664Z,98763.63
2023-03-07T07:14:40.436Z,98774.31
2023-03-07T07:17:08.200Z,98775.34
2023-03-07T07:19:37.699Z,98776.59
2023-03-07T07:22:06.207Z,98782.19
2023-03-07T07:24:33.976Z,98780.97
2023-03-07T07:27:01.542Z,98772.88
2023-03-07T07:29:29.159Z,98773.53
2023-03-07T07:31:56.856Z,98788.75
2023-03-07T07:34:24.750Z,98780.53
2023-03-07T07:36:54.002Z,98785.31
2023-03-07T07:39:21.807Z,98782.22
2023-03-07T07:41:49.478Z,98783.88
2023-03-07T07:44:17.442Z,98784.06
2023-03-07T07:46:45.114Z,98789.19
2023-03-07T07:49:12.830Z,98789.59
2023-03-07T07:51:41.037Z,98793.75
2023-03-07T07:54:10.280Z,98789.22
2023-03-07T07:56:37.943Z,98788.56
2023-03-07T07:59:05.600Z,98791.22
2023-03-07T08:01:33.442Z,98785.47
2023-03-07T08:04:01.132Z,98801.91
2023-03-07T08:06:29.752Z,98795.97
2023-03-07T08:08:57.776Z,98794.72
2023-03-07T08:11:27.208Z,98794.72
2023-03-07T08:13:54.898Z,98793.50
2023-03-07T08:16:26.004Z,98800.66
2023-03-07T08:18:55.765Z,98792.88
2023-03-07T08:21:24.149Z,98790.16
2023-03-07T08:23:51.985Z,98806.03
2023-03-07T08:26:21.712Z,98804.78
2023-03-07T08:28:50.810Z,98809.91
2023-03-07T08:31:20.426Z,98815.06
2023-03-07T08:33:48.545Z,98809.13
2023-03-07T08:36:17.099Z,98811.59
2023-03-07T08:38:50.685Z,98812.44
2023-03-07T08:41:19.723Z,98820.63
2023-03-07T08:43:47.394Z,98815.88
2023-03-07T08:46:16.724Z,98817.72
2023-03-07T08:48:44.826Z,98821.25
2023-03-07T08:51:15.749Z,98820.38
2023-03-07T08:53:44.778Z,98829.03
2023-03-07T08:56:14.393Z,98817.06
2023-03-07T08:58:42.056Z,98819.16
2023-03-07T09:01:10.215Z,98819.16
2023-03-07T09:03:39.327Z,98825.72
2023-03-07T09:06:07.261Z,98822.81
2023-03-07T09:08:35.036Z,98827.31
2023-03-07T09:11:05.336Z,98828.47
2023-03-07T09:13:42.975Z,98838.78
2023-03-07T09:16:14.611Z,98834.84
2023-03-07T09:18:43.711Z,98825.81
2023-03-07T09:21:11.435Z,98831.00
2023-03-07T09:23:39.237Z,98828.47
2023-03-07T09:26:07.639Z,98835.31
2023-03-07T09:28:35.400Z,98826.75
2023-03-07T09:31:07.938Z,98828.94
2023-03-07T09:33:35.968Z,98835.00
2023-03-07T09:36:07.195Z,98828.31
2023-03-07T09:38:35.308Z,98826.72
2023-03-07T09:41:16.082Z,98824.88
2023-03-07T09:43:48.425Z,98824.88
2023-03-07T09:46:28.618Z,98820.78
2023-03-07T09:49:18.539Z,98829.00
2023-03-07T09:51:51.361Z,98837.44
2023-03-07T09:54:22.226Z,98826.34
2023-03-07T09:56:54.258Z,98829.97
2023-03-07T09:59:32.186Z,98822.94
2023-03-07T10:02:06.349Z,98828.84
2023-03-07T10:04:44.908Z,98826.38
2023-03-07T10:07:17.963Z,98827.56
2023-03-07T10:09:47.058Z,98830.00
2023-03-07T10:12:37.726Z,98829.13
2023-03-07T10:15:16.586Z,98832.28
2023-03-07T10:18:10.657Z,98832.44
2023-03-07T10:20:49.285Z,98839.69
2023-03-07T10:23:31.027Z,98830.00
2023-03-07T10:26:09.367Z,98843.75
2023-03-07T10:28:42.161Z,98838.03
2023-03-07T10:31:19.499Z,98840.69
2023-03-07T10:33:49.341Z,98840.53
2023-03-07T10:36:20.785Z,98835.06
2023-03-07T10:39:01.192Z,98845.28
2023-03-07T10:41:29.553Z,98845.28
2023-03-07T10:43:58.166Z,98854.50
2023-03-07T10:46:30.102Z,98854.34
2023-03-07T10:49:10.447Z,98843.38
2023-03-07T10:51:51.459Z,98848.84
2023-03-07T10:54:23.063Z,98848.16
2023-03-07T10:57:09.186Z,98854.56
2023-03-07T10:59:38.348Z,98852.09
2023-03-07T11:02:31.186Z,98848.03
2023-03-07T11:04:59.747Z,98845.56
2023-03-07T11:07:29.840Z,98839.44
2023-03-07T11:10:02.422Z,98838.63
2023-03-07T11:12:34.026Z,98842.38
2023-03-07T11:15:12.516Z,98836.91
2023-03-07T11:17:43.937Z,98841.94
2023-03-07T11:20:21.882Z,98835.53
2023-03-07T11:22:51.395Z,98838.31
2023-03-07T11:25:25.311Z,98840.03
2023-03-07T11:27:54.606Z,98834.50
2023-03-07T11:30:26.112Z,98830.63
2023-03-07T11:33:03.271Z,98830.75
2023-03-07T11:35:47.147Z,98828.88
2023-03-07T11:38:25.508Z,98833.03
2023-03-07T11:41:01.152Z,98827.63
2023-03-07T11:43:43.739Z,98826.25
2023-03-07T11:46:19.888Z,98827.78
2023-03-07T11:49:05.367Z,98819.47
2023-03-07T11:51:45.413Z,98824.38
2023-03-07T11:54:26.490Z,98835.88
2023-03-07T11:57:02.033Z,98825.97
2023-03-07T12:00:04.080Z,98819.59
2023-03-07T12:03:09.056Z,98812.97
2023-03-07T12:05:58.675Z,98806.69
2023-03-07T12:09:00.168Z,98819.44
2023-03-07T12:11:37.695Z,98823.97
2023-03-07T12:14:18.832Z,98829.75
2023-03-07T12:16:58.312Z,98826.88
2023-03-07T12:19:56.199Z,98833.91
2023-03-07T12:22:27.964Z,98831.50
2023-03-07T12:25:12.688Z,98828.84
2023-03-07T12:27:44.367Z,98828.06
2023-03-07T12:30:19.657Z,98829.09
2023-03-07T12:32:48.848Z,98831.78
2023-03-07T12:35:24.550Z,98834.69
2023-03-07T12:37:56.767Z,98844.16
2023-03-07T12:40:29.993Z,98846.22
2023-03-07T12:43:02.346Z,98848.72
2023-03-07T12:45:41.551Z,98845.81
2023-03-07T12:48:17.403Z,98836.91
2023-03-07T12:50:54.967Z,98839.22
2023-03-07T12:53:32.204Z,98829.13
2023-03-07T12:56:06.524Z,98822.56
2023-03-07T12:58:39.964Z,98823.19
2023-03-07T13:01:16.798Z,98824.59
2023-03-07T13:03:53.485Z,98826.03
2023-03-07T13:06:23.732Z,98824.16
2023-03-07T13:08:53.736Z,98827.88
2023-03-07T13:11:23.881Z,98837.16
2023-03-07T13:13:55.634Z,98841.69
2023-03-07T13:16:46.175Z,98833.19
2023-03-07T13:19:43.656Z,98842.25
2023-03-07T13:22:48.923Z,98839.59
2023-03-07T13:25:56.642Z,98866.59
2023-03-07T13:28:54.369Z,98891.25
2023-03-07T13:31:45.983Z,98893.06
2023-03-07T13:34:52.294Z,98896.38
2023-03-07T13:37:51.211Z,98879.88
2023-03-07T13:40:31.302Z,98882.38
2023-03-07T13:42:59.114Z,98868.91
2023-03-07T13:45:50.441Z,98872.66
2023-03-07T13:48:59.970Z,98859.44
2023-03-07T13:51:30.102Z,98863.72
2023-03-07T13:54:02.096Z,98855.72
2023-03-07T13:56:31.885Z,98859.69
2023-03-07T13:59:04.389Z,98856.28
2023-03-07T14:01:36.491Z,98860.16
2023-03-07T14:04:12.558Z,98860.75
2023-03-07T14:06:44.457Z,98860.16
2023-03-07T14:09:17.087Z,98866.06
2023-03-07T14:11:54.763Z,98868.44
2023-03-07T14:14:45.567Z,98871.03
2023-03-07T14:17:25.952Z,98876.03
2023-03-07T14:20:02.293Z,98884.41
2023-03-07T14:22:43.851Z,98873.41
2023-03-07T14:25:18.973Z,98873.41
2023-03-07T14:27:55.600Z,98880.84
2023-03-07T14:30:25.002Z,98881.72
2023-03-07T14:32:55.311Z,98887.50
2023-03-07T14:35:38.332Z,98878.41
2023-03-07T14:38:10.195Z,98891.88
2023-03-07T14:40:49.428Z,98894.19
2023-03-07T14:43:32.659Z,98890.31
2023-03-07T14:46:08.685Z,98886.63
2023-03-07T14:49:09.655Z,98891.06
2023-03-07T14:51:52.990Z,98891.28
2023-03-07T14:54:26.131Z,98890.84
2023-03-07T14:56:54.988Z,98896.56
2023-03-07T14:59:29.140Z,98896.81
2023-03-07T15:01:59.291Z,98897.16
2023-03-07T15:04:29.431Z,98895.94
2023-03-07T15:06:59.607Z,98894.16
2023-03-07T15:09:29.855Z,98885.94
2023-03-07T15:12:03.961Z,98885.88
2023-03-07T15:14:40.430Z,98886.88
2023-03-07T15:17:14.230Z,98888.53
2023-03-07T15:19:48.023Z,98892.41
2023-03-07T15:22:20.244Z,98895.28
2023-03-07T15:24:51.740Z,98902.50
2023-03-07T15:27:24.673Z,98905.47
2023-03-07T15:29:53.141Z,98911.13
2023-03-07T15:32:34.263Z,98902.72
2023-03-07T15:35:04.150Z,98907.13
2023-03-07T15:37:33.394Z,98899.00
2023-03-07T15:40:27.201Z,98898.44
2023-03-07T15:42:56.584Z,98896.22
2023-03-07T15:45:32.187Z,98901.16
2023-03-07T15:48:02.576Z,98883.50
2023-03-07T15:50:30.844Z,98888.78
2023-03-07T15:53:06.899Z,98885.72
2023-03-07T15:55:36.874Z,98895.41
2023-03-07T15:58:12.666Z,98890.72
2023-03-07T16:00:42.319Z,98900.50
2023-03-07T16:03:23.993Z,98906.84
2023-03-07T16:05:52.478Z,98919.97
2023-03-07T16:08:21.455Z,98921.94
2023-03-07T16:10:57.007Z,98916.66
2023-03-07T16:13:29.278Z,98914.63
2023-03-07T16:16:01.920Z,98920.72
2023-03-07T16:18:31.292Z,98928.69
2023-03-07T16:20:59.517Z,98927.28
2023-03-07T16:23:31.108Z,98921.88
2023-03-07T16:26:05.945Z,98922.13
2023-03-07T16:28:34.381Z,98925.91
2023-03-07T16:31:02.162Z,98927.28
2023-03-07T16:33:30.016Z,98934.75
2023-03-07T16:35:57.744Z,98935.25
2023-03-07T16:38:25.439Z,98934.66
2023-03-07T16:40:53.216Z,98946.00
2023-03-07T16:43:32.165Z,98936.84
2023-03-07T16:46:01.081Z,98943.78
2023-03-07T16:48:28.987Z,98944.78
2023-03-07T16:50:56.758Z,98950.38
2023-03-07T16:53:24.984Z,98957.00
2023-03-07T16:55:54.315Z,98956.38
2023-03-07T16:58:26.402Z,98956.63
2023-03-07T17:00:55.897Z,98960.41
2023-03-07T17:03:24.372Z,98963.34
2023-03-07T17:05:52.074Z,98962.75
2023-03-07T17:08:19.737Z,98967.75
2023-03-07T17:10:47.877Z,98964.91
2023-03-07T17:13:18.447Z,98965.88
2023-03-07T17:15:47.822Z,98964.06
2023-03-07T17:18:15.619Z,98975.63
2023-03-07T17:20:46.382Z,98982.03
2023-03-07T17:23:14.271Z,98987.94
2023-03-07T17:25:42.153Z,98983.69
2023-03-07T17:28:20.263Z,98992.75
2023-03-07T17:30:50.096Z,98995.84
2023-03-07T17:33:18.182Z,98990.88
2023-03-07T17:35:46.174Z,98985.72
2023-03-07T17:38:15.052Z,98996.41
2023-03-07T17:40:44.087Z,98986.00
2023-03-07T17:43:12.312Z,98980.44
2023-03-07T17:45:40.632Z,98981.47
2023-03-07T17:48:12.200Z,98981.00
2023-03-07T17:50:41.083Z,98982.22
2023-03-07T17:53:10.779Z,98984.34
2023-03-07T17:55:39.847Z,99000.19
2023-03-07T17:58:09.200Z,98996.16
2023-03-07T18:00:38.262Z,98997.88
2023-03-07T18:03:06.195Z,99003.97
2023-03-07T18:05:35.393Z,99003.75
2023-03-07T18:08:05.029Z,99010.31
2023-03-07T18:10:35.021Z,99011.25
2023-03-07T18:13:02.833Z,99007.53
2023-03-07T18:15:32.021Z,99013.81
2023-03-07T18:17:59.979Z,99012.19
2023-03-07T18:20:29.801Z,99014.88
2023-03-07T18:23:00.076Z,99021.44
2023-03-07T18:25:28.200Z,99023.09
2023-03-07T18:27:56.133Z,99021.81
2023-03-07T18:30:24.490Z,99024.34
2023-03-07T18:32:55.266Z,99026.84
2023-03-07T18:35:23.462Z,99022.75
2023-03-07T18:37:51.173Z,99019.91
2023-03-07T18:40:22.743Z,99015.75
2023-03-07T18:42:50.677Z,99026.03
2023-03-07T18:45:18.552Z,99034.09
2023-03-07T18:47:46.241Z,99039.63
2023-03-07T18:50:16.032Z,99041.88
2023-03-07T18:52:43.939Z,99048.53
2023-03-07T18:55:12.254Z,99052.84
2023-03-07T18:57:41.353Z,99049.22
2023-03-07T19:00:11.407Z,99051.72
2023-03-07T19:02:39.491Z,99047.41
2023-03-07T19:05:08.217Z,99051.44
2023-03-07T19:07:35.943Z,99049.91
2023-03-07T19:10:03.591Z,99041.25
2023-03-07T19:12:31.375Z,99041.53
2023-03-07T19:15:00.576Z,99048.53
2023-03-07T19:17:28.250Z,99045.84
2023-03-07T19:19:59.127Z,99052.03
2023-03-07T19:22:30.059Z,99052.47
2023-03-07T19:24:57.984Z,99064.00
2023-03-07T19:27:27.826Z,99064.22
2023-03-07T19:29:55.754Z,99070.66
2023-03-07T19:32:25.017Z,99074.34
2023-03-07T19:34:52.897Z,99081.03
2023-03-07T19:37:20.687Z,99088.34
2023-03-07T19:39:51.754Z,99086.69
2023-03-07T19:42:19.586Z,99092.78
2023-03-07T19:44:47.290Z,99102.00
2023-03-07T19:47:15.217Z,99098.97
2023-03-07T19:49:44.317Z,99100.97
2023-03-07T19:52:12.250Z,99102.84
2023-03-07T19:54:40.097Z,99101.53
2023-03-07T19:57:09.243Z,99110.19
2023-03-07T19:59:37.259Z,99107.59
2023-03-07T20:02:06.064Z,99110.75
2023-03-07T20:04:33.833Z,99116.09
2023-03-07T20:07:03.447Z,99120.97
2023-03-07T20:09:31.618Z,99126.66
2023-03-07T20:12:01.267Z,99121.13
2023-03-07T20:14:29.518Z,99113.69
2023-03-07T20:16:57.588Z,99116.56
2023-03-07T20:19:25.480Z,99121.91
2023-03-07T20:21:54.301Z,99126.13
2023-03-07T20:24:23.536Z,99130.75
2023-03-07T20:26:51.425Z,99132.56
2023-03-07T20:29:19.371Z,99132.50
2023-03-07T20:31:50.798Z,99134.31
2023-03-07T20:34:18.781Z,99144.00
2023-03-07T20:36:47.250Z,99148.88
2023-03-07T20:39:15.498Z,99146.75
2023-03-07T20:41:46.301Z,99150.28
2023-03-07T20:44:15.724Z,99147.69
2023-03-07T20:46:44.329Z,99148.41
2023-03-07T20:49:14.807Z,99150.47
2023-03-07T20:51:43.502Z,99163.53
2023-03-07T20:54:14.781Z,99165.09
2023-03-07T20:56:43.927Z,99154.47
2023-03-07T20:59:15.543Z,99166.06
2023-03-07T21:01:44.013Z,99167.22
2023-03-07T21:04:15.223Z,99167.03
2023-03-07T21:06:45.040Z,99180.78
2023-03-07T21:09:14.760Z,99181.44
2023-03-07T21:11:45.003Z,99181.38
2023-03-07T21:14:17.296Z,99181.06
2023-03-07T21:16:45.461Z,99187.81
2023-03-07T21:19:13.640Z,99179.75
2023-03-07T21:21:42.215Z,99180.66
2023-03-07T21:24:12.872Z,99183.44
2023-03-07T21:26:40.667Z,99176.88
2023-03-07T21:29:10.671Z,99187.91
2023-03-07T21:31:39.778Z,99191.06
2023-03-07T21:34:12.239Z,99190.44
2023-03-07T21:36:40.578Z,99191.53
2023-03-07T21:39:09.993Z,99186.91
2023-03-07T21:41:38.469Z,99183.50
2023-03-07T21:44:06.315Z,99186.81
2023-03-07T21:46:34.118Z,99185.16
2023-03-07T21:49:03.167Z,99191.03
2023-03-07T21:51:30.964Z,99195.38
2023-03-07T21:53:58.859Z,99207.06
2023-03-07T21:56:28.138Z,99203.91
2023-03-07T21:58:56.898Z,99208.94
2023-03-07T22:01:27.094Z,99210.31
2023-03-07T22:03:57.194Z,99219.25
2023-03-07T22:06:29.955Z,99211.44
2023-03-07T22:09:00.182Z,99215.78
2023-03-07T22:11:28.076Z,99217.16
2023-03-07T22:13:55.777Z,99217.94
2023-03-07T22:16:24.362Z,99223.38
2023-03-07T22:18:54.178Z,99223.72
2023-03-07T22:21:24.762Z,99220.41
2023-03-07T22:23:58.073Z,99222.44
2023-03-07T22:26:28.100Z,99221.59
2023-03-07T22:28:59.920Z,99227.44
2023-03-07T22:31:28.070Z,99227.06
2023-03-07T22:33:56.768Z,99231.81
2023-03-07T22:36:26.343Z,99231.31
2023-03-07T22:38:57.222Z,99226.13
2023-03-07T22:41:26.255Z,99231.34
2023-03-07T22:43:54.172Z,99242.66
2023-03-07T22:46:22.073Z,99240.59
2023-03-07T22:48:53.261Z,99246.91
2023-03-07T22:51:21.431Z,99252.41
2023-03-07T22:53:49.401Z,99247.53
2023-03-07T22:56:20.207Z,99257.91
2023-03-07T22:58:49.282Z,99249.50
2023-03-07T23:01:20.245Z,99243.69
2023-03-07T23:03:48.843Z,99250.69
2023-03-07T23:06:17.101Z,99245.06
2023-03-07T23:08:45.543Z,99244.88
2023-03-07T23:11:14.034Z,99250.69
2023-03-07T23:13:44.836Z,99251.03
2023-03-07T23:16:14.542Z,99252.88
2023-03-07T23:18:43.137Z,99244.69
2023-03-07T23:21:15.735Z,99246.56
2023-03-07T23:23:45.529Z,99253.00
2023-03-07T23:26:18.237Z,99251.63
2023-03-07T23:28:47.769Z,99250.69
2023-03-07T23:31:22.405Z,99238.88
2023-03-07T23:33:50.271Z,99251.81
2023-03-07T23:36:19.238Z,99260.47
2023-03-07T23:38:47.576Z,99257.91
2023-03-07T23:41:15.464Z,99267.28
2023-03-07T23:43:43.309Z,99260.72
2023-03-07T23:46:12.287Z,99266.84
2023-03-07T23:48:40.174Z,99259.91
2023-03-07T23:51:08.073Z,99264.69
2023-03-07T23:53:35.823Z,99262.97
2023-03-07T23:56:06.275Z,99266.22
2023-03-07T23:58:34.351Z,99266.09
